DW8632 Weather Reports


Display with metric or nautical units.
time (UTC)temp
F
wind
direction
speed
MPH
gust
MPH
rain 1hr
in
rain 24hr
in
rain mn
in
humidity
%
barometer
mb
20220707023018 79 88 0.0 4.0 0.00 0.00 0.00 65 1004.2
20220707021518 79 70 0.0 5.0 0.00 0.00 0.00 65 1004.4
20220707020020 79 72 2.0 9.0 0.00 0.00 0.00 64 1003.6
20220707014516 80 84 5.0 16.0 0.00 0.00 0.00 62 1003.1
20220707013014 80 109 3.0 10.0 0.00 0.00 0.00 61 1003.0
20220707011516 81 69 7.0 13.0 0.00 0.00 0.00 60 1003.5
20220707010015 82 82 5.0 13.0 0.00 0.00 0.00 60 1003.7
20220707004517 82 99 1.0 11.0 0.00 0.00 0.00 61 1003.7
20220707003012 83 84 3.0 10.0 0.00 0.00 0.00 59 1003.8
20220707001552 84 89 4.0 10.0 0.00 0.00 0.00 58 1003.4
20220707000051 86 107 3.0 11.0 0.00 0.00 0.00 56 1003.2
20220706234545 86 95 3.0 11.0 0.00 0.00 0.00 57 1003.3
20220706233044 86 95 4.0 9.0 0.00 0.00 0.00 56 1003.2
20220706231542 87 130 3.0 8.0 0.00 0.00 0.00 55 1003.2
20220706230040 86 119 4.0 11.0 0.00 0.00 0.00 55 1003.3
20220706224538 86 95 2.0 10.0 0.00 0.00 0.00 56 1003.4
20220706223035 87 90 1.0 10.0 0.00 0.00 0.00 55 1003.7
20220706221543 86 114 4.0 10.0 0.00 0.01 0.00 54 1003.9
20220706220030 87 96 5.0 12.0 0.00 0.01 0.00 53 1004.1
20220706214528 88 104 4.0 8.0 0.00 0.01 0.00 54 1004.4
20220706213025 87 112 3.0 11.0 0.00 0.01 0.00 53 1004.5
20220706211524 87 94 4.0 10.0 0.00 0.01 0.00 53 1004.7
20220706210021 87 92 1.0 9.0 0.00 0.01 0.00 54 1004.9
20220706204527 86 95 3.0 8.0 0.00 0.01 0.00 54 1005.1
20220706203018 86 79 2.0 12.0 0.00 0.01 0.00 53 1005.2
20220706201522 87 84 1.0 8.0 0.00 0.03 0.00 54 1005.1
20220706200013 87 64 3.0 9.0 0.00 0.03 0.00 54 1005.2
20220706193051 85 109 0.0 3.0 0.00 0.03 0.00 54 1005.5
20220706191544 85 78 1.0 8.0 0.00 0.05 0.00 55 1005.6
20220706190111 86 65 1.0 7.0 0.00 0.05 0.00 57 1005.6
20220706184550 85 52 1.0 7.0 0.00 0.05 0.00 59 1005.7
20220706183041 84 28 0.0 3.0 0.00 0.05 0.00 61 1005.9
20220706181539 83 348 1.0 3.0 0.00 0.07 0.00 63 1005.9
20220706180035 83 23 1.0 6.0 0.00 0.07 0.00 65 1006.1
20220706174537 83 56 0.0 5.0 0.00 0.07 0.00 66 1006.0
20220706173034 82 34 0.0 5.0 0.00 0.07 0.00 65 1006.2
20220706171527 81 84 0.0 5.0 0.00 0.10 0.00 65 1006.4
20220706170027 81 46 0.0 4.0 0.00 0.10 0.00 68 1006.3
20220706164520 80 30 0.0 3.0 0.00 0.10 0.00 68 1006.5
20220706163018 80 34 0.0 5.0 0.00 0.10 0.00 69 1006.6
20220706161517 79 32 0.0 1.0 0.00 0.13 0.00 71 1006.9
20220706160051 79 46 0.0 2.0 0.00 0.13 0.00 72 1006.9
20220706154550 77 89 0.0 2.0 0.00 0.13 0.00 73 1006.9
20220706153001 76 86 0.0 1.0 0.00 0.13 0.00 75 1007.0
20220706151556 75 86 0.0 1.0 0.00 0.16 0.00 77 1007.0
20220706150054 73 48 0.0 1.0 0.00 0.16 0.00 80 1007.1
20220706144547 72 26 0.0 1.0 0.00 0.16 0.00 82 1007.1
20220706143044 70 24 0.0 4.0 0.00 0.16 0.00 84 1007.2
20220706141540 69 23 0.0 4.0 0.00 0.20 0.00 86 1007.2
20220706140034 68 9 0.0 2.0 0.00 0.20 0.00 88 1007.2
20220706134537 66 30 0.0 4.0 0.00 0.20 0.00 89 1007.1
20220706133029 65 19 0.0 2.0 0.00 0.20 0.00 90 1007.0
20220706131529 65 5 0.0 2.0 0.00 0.21 0.00 90 1007.0
20220706130029 64 349 0.0 3.0 0.00 0.21 0.00 91 1006.9
20220706124524 64 5 0.0 3.0 0.00 0.21 0.00 91 1006.9
20220706123022 63 350 0.0 1.0 0.00 0.21 0.00 92 1007.0
20220706121520 62 343 0.0 0.0 0.00 0.21 0.00 92 1006.9
20220706120018 62 343 0.0 0.0 0.00 0.21 0.00 92 1006.8
20220706114521 62 343 0.0 1.0 0.00 0.21 0.00 92 1006.8
20220706113027 62 344 0.0 1.0 0.00 0.21 0.00 91 1006.6
20220706111514 62 348 0.0 1.0 0.00 0.22 0.00 91 1006.5
20220706110015 62 355 0.0 0.0 0.00 0.22 0.00 92 1006.4
20220706104514 62 347 0.0 1.0 0.00 0.22 0.00 91 1006.3
20220706103052 62 338 0.0 4.0 0.00 0.22 0.00 91 1006.2
20220706101550 63 290 0.0 1.0 0.00 0.22 0.00 91 1006.2
20220706100036 63 290 0.0 1.0 0.00 0.22 0.00 91 1006.1
20220706094538 63 290 0.0 1.0 0.00 0.22 0.00 90 1006.1
20220706091555 63 290 0.0 1.0 0.00 0.23 0.00 91 1006.2
20220706090047 63 290 1.0 4.0 0.00 0.23 0.00 90 1006.3
20220706084543 64 286 1.0 2.0 0.00 0.23 0.00 90 1006.3
20220706083041 64 292 0.0 0.0 0.00 0.23 0.00 90 1006.0
20220706081540 64 292 0.0 0.0 0.00 0.23 0.00 89 1006.2
20220706080037 64 273 1.0 3.0 0.00 0.23 0.00 89 1005.9
20220706074534 65 130 0.0 0.0 0.00 0.23 0.00 87 1005.6
20220706073032 65 130 0.0 0.0 0.00 0.23 0.00 87 1005.5
20220706071533 65 130 0.0 0.0 0.00 0.23 0.00 87 1005.6
20220706070029 66 116 0.0 0.0 0.00 0.23 0.00 85 1005.7
20220706064532 66 115 0.0 0.0 0.00 0.23 0.00 84 1005.6
20220706063027 66 115 0.0 0.0 0.00 0.23 0.00 84 1005.7
20220706061524 66 115 0.0 0.0 0.00 0.23 0.00 84 1005.8
20220706060022 66 115 0.0 1.0 0.00 0.23 0.00 83 1005.8
20220706054520 66 115 0.0 0.0 0.00 0.23 0.00 83 1005.7
20220706053023 66 92 0.0 0.0 0.00 0.23 0.00 84 1005.8
20220706051515 66 92 0.0 0.0 0.00 0.23 0.23 83 1005.8
20220706050013 66 92 0.0 2.0 0.00 0.23 0.23 84 1005.7
20220706044513 66 53 0.0 1.0 0.00 0.23 0.23 86 1005.8
20220706043012 67 37 2.0 8.0 0.00 0.23 0.23 87 1006.1
20220706041510 67 32 3.0 12.0 0.00 0.23 0.23 86 1006.0
20220706040016 68 27 7.0 18.0 0.00 0.23 0.23 81 1006.0
20220706034508 70 331 16.0 26.0 0.00 0.23 0.23 77 1006.1
20220706033009 73 292 1.0 2.0 0.00 0.23 0.23 77 1006.2
20220706031551 74 325 0.0 1.0 0.00 0.23 0.23 76 1006.0
20220706030049 74 325 0.0 0.0 0.00 0.23 0.23 74 1005.2
20220706024558 75 325 0.0 3.0 0.00 0.23 0.23 73 1005.2